Terminal Aerodrome Forecast
Issued by NWS Charleston, WV

Current Version | Previous Version | Text Only | Print | Product List | Glossary Off
Versions: 1 2 3 4 5 6 7 8 9 10 11 12 13 14 15 16 17 18 19 20 21 22 23 24 25 26 27 28 29 30 31 32 33 34 35

000
FTUS41 KRLX 191100
TAFCRW
TAF
KCRW 191130Z 1912/2012 00000KT 4SM RA BR SCT001 BKN025
     FM191400 15006KT 6SM SHRA BR OVC020
     FM191800 17008KT P6SM BKN025
     FM192100 18008KT P6SM BKN030
     FM192300 16005KT P6SM BKN035
     FM200500 00000KT P6SM BKN030
     FM200900 00000KT 4SM BR BKN030=

USA.gov is the U.S. government's official web portal to all federal, state and local government web resources and services.